Moccasin, Arizona
Current Conditions -  °F | °C
As of 6:55 AM on Thursday 23 Oct 2014 (Local Time) from KAZC Reporting Station
Clear Clear  
Wind Chill: 34°   Ceiling: Unl
Heat Index: 37°   Visibility: 10mi
Dew Point: 31°   Wind: 5mph
Humidity: 78%   Direction: 130°SE
Pressure: 30.25"   Gusts: NA
Location:  36.9484°N, 112.529°W
Report Text: KAZC 231355Z AUTO 13004KT 10SM CLR 03/00 A3025 RMK AO2 T00301005
Loading
Personal Weather Stations






























Interactive Weather Map
Tropical Storm Tracking
New forecast layout! Learn more

10-Day Weather Forecast

Advertisements
Track Severe Weather on mobile